Despina — SVDK — position and weather

sailwx.info

Track history (hours):
 
Tides and Currents Weather Stations Pressure Air Temp Water Temp Dewpoint Dewpoint Depression Visibility Wind Speed Wind Dir Waves Ship Positions

Despina

Last reported at 2015-Apr-18 22:31 UTC. Time now 2015-Apr-19 01:08 UTC.
Position N 36°48' E 001°21'.

Length 225 m; draft 11.3 m.

Type: Cargo ship. MMSI: 239469000.

Date/timePositionNaut miles runAvg speedWind from/ knotsBaromVisibWave heightAir tempDewpointWater temp
2015-Apr-18 22:31N 36°48' E 001°21'1414.0
2015-Apr-18 21:33N 36°45' E 001°04'1514.6
2015-Apr-18 20:33N 36°42' E 000°47'1414.2
2015-Apr-18 19:33N 36°40' E 000°29'1414.2
2015-Apr-18 18:33N 36°37' E 000°12'1714.2
2015-Apr-18 17:21N 36°33' W 000°09'1213.8
2015-Apr-18 16:30N 36°31' W 000°23'1314.0
2015-Apr-18 15:33N 36°28' W 000°39'1514.2
2015-Apr-18 14:30N 36°25' W 000°57'20413.6
2015-Apr-17 23:33N 36°03' W 005°09'1111.3
2015-Apr-17 22:33N 36°05' W 005°22'2 2.2
2015-Apr-17 21:33N 36°07' W 005°23'0 0.1
2015-Apr-17 20:33N 36°07' W 005°23'0 0.0
2015-Apr-17 19:33N 36°07' W 005°23'0 0.0
2015-Apr-17 18:33N 36°07' W 005°22'0 0.0
2015-Apr-17 17:21N 36°07' W 005°22'0 0.1
2015-Apr-17 16:27N 36°07' W 005°22'0 0.1
2015-Apr-17 15:33N 36°07' W 005°22'0 0.0
2015-Apr-17 14:33N 36°07' W 005°22'0 0.0
2015-Apr-17 13:27N 36°07' W 005°22'0 0.0
2015-Apr-17 12:33N 36°07' W 005°22'0 0.1
2015-Apr-17 11:30N 36°07' W 005°22'0 0.2
2015-Apr-17 10:33N 36°07' W 005°23'3 3.3
2015-Apr-17 09:33N 36°06' W 005°19'5 4.9
2015-Apr-17 08:33N 36°07' W 005°13'1 1.3
2015-Apr-17 07:33N 36°06' W 005°13'6 5.9
2015-Apr-17 06:34N 36°01' W 005°16'1915.5
2015-Apr-17 05:19N 35°55' W 005°38'61813.2
2015-Apr-15 06:23N 28°09' W 013°38'  
Track history (hours):
 
Tides and Currents Weather Stations Pressure Air Temp Water Temp Dewpoint Dewpoint Depression Visibility Wind Speed Wind Dir Waves Ship Positions

Despina

Last reported at 2015-Apr-18 22:31 UTC. Time now 2015-Apr-19 01:08 UTC.
Position N 36°48' E 001°21'.

Length 225 m; draft 11.3 m.

Type: Cargo ship. MMSI: 239469000.

Date/timePositionNaut miles runAvg speedWind from/ knotsBaromVisibWave heightAir tempDewpointWater temp
2015-Apr-18 22:31N 36°48' E 001°21'1414.0
2015-Apr-18 21:33N 36°45' E 001°04'1514.6
2015-Apr-18 20:33N 36°42' E 000°47'1414.2
2015-Apr-18 19:33N 36°40' E 000°29'1414.2
2015-Apr-18 18:33N 36°37' E 000°12'1714.2
2015-Apr-18 17:21N 36°33' W 000°09'1213.8
2015-Apr-18 16:30N 36°31' W 000°23'1314.0
2015-Apr-18 15:33N 36°28' W 000°39'1514.2
2015-Apr-18 14:30N 36°25' W 000°57'20413.6
2015-Apr-17 23:33N 36°03' W 005°09'1111.3
2015-Apr-17 22:33N 36°05' W 005°22'2 2.2
2015-Apr-17 21:33N 36°07' W 005°23'0 0.1
2015-Apr-17 20:33N 36°07' W 005°23'0 0.0
2015-Apr-17 19:33N 36°07' W 005°23'0 0.0
2015-Apr-17 18:33N 36°07' W 005°22'0 0.0
2015-Apr-17 17:21N 36°07' W 005°22'0 0.1
2015-Apr-17 16:27N 36°07' W 005°22'0 0.1
2015-Apr-17 15:33N 36°07' W 005°22'0 0.0
2015-Apr-17 14:33N 36°07' W 005°22'0 0.0
2015-Apr-17 13:27N 36°07' W 005°22'0 0.0
2015-Apr-17 12:33N 36°07' W 005°22'0 0.1
2015-Apr-17 11:30N 36°07' W 005°22'0 0.2
2015-Apr-17 10:33N 36°07' W 005°23'3 3.3
2015-Apr-17 09:33N 36°06' W 005°19'5 4.9
2015-Apr-17 08:33N 36°07' W 005°13'1 1.3
2015-Apr-17 07:33N 36°06' W 005°13'6 5.9
2015-Apr-17 06:34N 36°01' W 005°16'1915.5
2015-Apr-17 05:19N 35°55' W 005°38'61813.2
2015-Apr-15 06:23N 28°09' W 013°38'  

Dump ship's entire track history